createdAt,value
2022-09-09T00:01:23.343Z,100.00
2022-09-09T00:04:17.050Z,100.00
2022-09-09T00:07:03.274Z,100.00
2022-09-09T00:09:32.741Z,100.00
2022-09-09T00:12:15.626Z,100.00
2022-09-09T00:14:51.282Z,100.00
2022-09-09T00:17:34.185Z,100.00
2022-09-09T00:20:03.580Z,100.00
2022-09-09T00:22:32.346Z,100.00
2022-09-09T00:25:12.094Z,100.00
2022-09-09T00:27:45.762Z,100.00
2022-09-09T00:30:12.083Z,100.00
2022-09-09T00:32:38.824Z,100.00
2022-09-09T00:35:11.317Z,100.00
2022-09-09T00:37:41.094Z,100.00
2022-09-09T00:40:23.256Z,100.00
2022-09-09T00:42:59.418Z,100.00
2022-09-09T00:45:44.234Z,100.00
2022-09-09T00:48:12.822Z,100.00
2022-09-09T00:50:50.371Z,100.00
2022-09-09T00:53:22.813Z,100.00
2022-09-09T00:56:14.941Z,100.00
2022-09-09T00:58:57.271Z,100.00
2022-09-09T01:01:23.726Z,100.00
2022-09-09T01:04:00.621Z,100.00
2022-09-09T01:06:40.331Z,100.00
2022-09-09T01:09:30.801Z,100.00
2022-09-09T01:12:18.368Z,100.00
2022-09-09T01:14:57.182Z,100.00
2022-09-09T01:17:46.184Z,100.00
2022-09-09T01:20:48.526Z,100.00
2022-09-09T01:23:14.813Z,100.00
2022-09-09T01:26:11.192Z,100.00
2022-09-09T01:28:39.924Z,100.00
2022-09-09T01:31:10.059Z,100.00
2022-09-09T01:33:36.515Z,100.00
2022-09-09T01:36:10.065Z,100.00
2022-09-09T01:38:37.274Z,100.00
2022-09-09T01:41:04.161Z,100.00
2022-09-09T01:43:31.390Z,100.00
2022-09-09T01:46:01.298Z,100.00
2022-09-09T01:48:28.952Z,100.00
2022-09-09T01:50:55.367Z,100.00
2022-09-09T01:53:22.802Z,100.00
2022-09-09T01:56:03.349Z,100.00
2022-09-09T01:58:43.503Z,100.00
2022-09-09T02:01:28.282Z,100.00
2022-09-09T02:03:58.022Z,100.00
2022-09-09T02:06:31.198Z,100.00
2022-09-09T02:09:00.642Z,100.00
2022-09-09T02:11:29.804Z,100.00
2022-09-09T02:14:03.647Z,100.00
2022-09-09T02:16:38.426Z,100.00
2022-09-09T02:19:25.797Z,100.00
2022-09-09T02:21:55.515Z,100.00
2022-09-09T02:24:22.861Z,100.00
2022-09-09T02:26:54.126Z,100.00
2022-09-09T02:29:27.716Z,100.00
2022-09-09T02:31:57.411Z,100.00
2022-09-09T02:34:25.305Z,100.00
2022-09-09T02:36:56.099Z,100.00
2022-09-09T02:39:22.482Z,100.00
2022-09-09T02:41:48.807Z,100.00
2022-09-09T02:44:18.850Z,100.00
2022-09-09T02:47:06.560Z,100.00
2022-09-09T02:49:41.719Z,100.00
2022-09-09T02:52:14.760Z,100.00
2022-09-09T02:54:41.201Z,100.00
2022-09-09T02:57:12.698Z,100.00
2022-09-09T02:59:40.633Z,100.00
2022-09-09T03:02:07.341Z,100.00
2022-09-09T03:04:36.117Z,100.00
2022-09-09T03:07:04.738Z,100.00
2022-09-09T03:09:31.829Z,100.00
2022-09-09T03:11:58.178Z,100.00
2022-09-09T03:14:26.130Z,100.00
2022-09-09T03:16:53.879Z,100.00
2022-09-09T03:19:21.026Z,100.00
2022-09-09T03:21:48.178Z,100.00
2022-09-09T03:24:15.056Z,100.00
2022-09-09T03:26:45.541Z,100.00
2022-09-09T03:29:13.246Z,100.00
2022-09-09T03:31:40.881Z,100.00
2022-09-09T03:34:07.561Z,100.00
2022-09-09T03:36:34.023Z,100.00
2022-09-09T03:39:01.253Z,100.00
2022-09-09T03:41:28.099Z,100.00
2022-09-09T03:43:55.010Z,100.00
2022-09-09T03:46:23.478Z,100.00
2022-09-09T03:48:50.068Z,100.00
2022-09-09T03:51:16.963Z,100.00
2022-09-09T03:53:44.030Z,100.00
2022-09-09T03:56:10.567Z,100.00
2022-09-09T03:58:38.298Z,100.00
2022-09-09T04:01:09.552Z,100.00
2022-09-09T04:03:36.287Z,100.00
2022-09-09T04:06:04.859Z,100.00
2022-09-09T04:08:34.952Z,100.00
2022-09-09T04:11:07.129Z,100.00
2022-09-09T04:13:35.316Z,100.00
2022-09-09T04:16:03.378Z,100.00
2022-09-09T04:18:30.027Z,100.00
2022-09-09T04:20:58.232Z,100.00
2022-09-09T04:23:26.785Z,100.00
2022-09-09T04:25:55.123Z,100.00
2022-09-09T04:28:24.755Z,100.00
2022-09-09T04:30:51.567Z,100.00
2022-09-09T04:33:20.968Z,100.00
2022-09-09T04:35:49.481Z,100.00
2022-09-09T04:38:17.232Z,100.00
2022-09-09T04:40:52.449Z,100.00
2022-09-09T04:43:20.616Z,100.00
2022-09-09T04:45:52.160Z,100.00
2022-09-09T04:48:19.415Z,100.00
2022-09-09T04:50:55.159Z,100.00
2022-09-09T04:53:21.746Z,100.00
2022-09-09T04:55:48.518Z,100.00
2022-09-09T04:58:14.834Z,100.00
2022-09-09T05:00:41.282Z,100.00
2022-09-09T05:03:09.760Z,100.00
2022-09-09T05:05:36.993Z,100.00
2022-09-09T05:08:05.520Z,100.00
2022-09-09T05:10:32.454Z,100.00
2022-09-09T05:12:58.930Z,100.00
2022-09-09T05:15:25.346Z,100.00
2022-09-09T05:17:53.455Z,100.00
2022-09-09T05:20:20.032Z,100.00
2022-09-09T05:22:46.505Z,100.00
2022-09-09T05:25:12.969Z,100.00
2022-09-09T05:27:39.303Z,100.00
2022-09-09T05:30:06.204Z,100.00
2022-09-09T05:32:35.163Z,100.00
2022-09-09T05:35:02.434Z,100.00
2022-09-09T05:37:28.834Z,100.00
2022-09-09T05:39:55.249Z,100.00
2022-09-09T05:42:21.658Z,100.00
2022-09-09T05:44:48.012Z,100.00
2022-09-09T05:47:15.722Z,100.00
2022-09-09T05:49:42.058Z,100.00
2022-09-09T05:52:08.385Z,100.00
2022-09-09T05:54:34.757Z,100.00
2022-09-09T05:57:01.236Z,100.00
2022-09-09T05:59:27.640Z,100.00
2022-09-09T06:01:54.490Z,100.00
2022-09-09T06:04:25.196Z,100.00
2022-09-09T06:06:51.696Z,100.00
2022-09-09T06:09:18.055Z,100.00
2022-09-09T06:11:44.396Z,100.00
2022-09-09T06:14:10.806Z,100.00
2022-09-09T06:16:38.671Z,100.00
2022-09-09T06:19:05.416Z,100.00
2022-09-09T06:21:34.309Z,100.00
2022-09-09T06:24:01.345Z,100.00
2022-09-09T06:26:33.652Z,100.00
2022-09-09T06:29:01.122Z,100.00
2022-09-09T06:31:31.353Z,100.00
2022-09-09T06:33:59.617Z,100.00
2022-09-09T06:36:31.937Z,100.00
2022-09-09T06:38:59.088Z,100.00
2022-09-09T06:41:29.542Z,100.00
2022-09-09T06:43:58.685Z,100.00
2022-09-09T06:46:28.950Z,100.00
2022-09-09T06:48:57.013Z,100.00
2022-09-09T06:51:26.818Z,100.00
2022-09-09T06:53:55.414Z,100.00
2022-09-09T06:56:25.316Z,100.00
2022-09-09T06:58:54.343Z,100.00
2022-09-09T07:01:26.051Z,98.55
2022-09-09T07:03:55.401Z,98.33
2022-09-09T07:06:25.841Z,96.41
2022-09-09T07:08:56.478Z,95.45
2022-09-09T07:11:26.669Z,94.70
2022-09-09T07:13:53.197Z,94.15
2022-09-09T07:16:21.557Z,94.51
2022-09-09T07:18:48.019Z,94.91
2022-09-09T07:21:15.455Z,94.89
2022-09-09T07:23:42.341Z,95.53
2022-09-09T07:26:17.868Z,93.97
2022-09-09T07:28:44.422Z,89.97
2022-09-09T07:31:17.678Z,88.95
2022-09-09T07:33:45.684Z,87.58
2022-09-09T07:36:31.251Z,85.86
2022-09-09T07:39:02.766Z,86.40
2022-09-09T07:41:38.497Z,86.07
2022-09-09T07:44:07.682Z,83.74
2022-09-09T07:46:35.222Z,84.53
2022-09-09T07:49:03.204Z,85.01
2022-09-09T07:51:32.792Z,83.67
2022-09-09T07:54:02.978Z,83.54
2022-09-09T07:56:30.469Z,81.84
2022-09-09T07:58:58.062Z,84.19
2022-09-09T08:01:32.408Z,84.43
2022-09-09T08:04:08.051Z,81.13
2022-09-09T08:06:38.186Z,79.75
2022-09-09T08:09:06.056Z,78.85
2022-09-09T08:11:38.655Z,80.37
2022-09-09T08:14:06.130Z,80.25
2022-09-09T08:16:37.359Z,78.85
2022-09-09T08:19:05.052Z,76.76
2022-09-09T08:21:34.096Z,78.01
2022-09-09T08:24:02.214Z,76.93
2022-09-09T08:26:30.772Z,74.75
2022-09-09T08:28:59.262Z,74.38
2022-09-09T08:31:28.873Z,75.76
2022-09-09T08:33:55.903Z,75.95
2022-09-09T08:36:24.425Z,76.57
2022-09-09T08:38:54.866Z,76.95
2022-09-09T08:41:36.437Z,76.38
2022-09-09T08:44:12.424Z,76.85
2022-09-09T08:46:58.783Z,75.42
2022-09-09T08:49:47.618Z,73.87
2022-09-09T08:52:19.692Z,72.78
2022-09-09T08:54:52.484Z,73.59
2022-09-09T08:57:28.921Z,74.07
2022-09-09T08:59:57.680Z,74.17
2022-09-09T09:02:33.932Z,73.31
2022-09-09T09:05:13.469Z,73.78
2022-09-09T09:07:59.667Z,72.84
2022-09-09T09:10:42.886Z,72.67
2022-09-09T09:13:23.986Z,72.42
2022-09-09T09:16:07.600Z,73.58
2022-09-09T09:18:34.852Z,74.41
2022-09-09T09:21:25.413Z,71.79
2022-09-09T09:24:01.693Z,71.12
2022-09-09T09:26:33.604Z,70.15
2022-09-09T09:29:09.449Z,71.71
2022-09-09T09:31:35.819Z,69.64
2022-09-09T09:34:03.345Z,69.58
2022-09-09T09:36:59.495Z,71.52
2022-09-09T09:42:21.590Z,70.69
2022-09-09T09:44:50.260Z,70.95
2022-09-09T09:47:22.076Z,70.96
2022-09-09T09:50:00.395Z,70.89
2022-09-09T09:52:29.873Z,70.40
2022-09-09T09:54:58.642Z,70.59
2022-09-09T09:57:30.950Z,70.93
2022-09-09T10:00:18.226Z,70.16
2022-09-09T10:02:45.896Z,69.12
2022-09-09T10:05:15.077Z,69.44
2022-09-09T10:07:41.487Z,67.40
2022-09-09T10:10:16.383Z,66.68
2022-09-09T10:13:01.864Z,67.68
2022-09-09T10:15:39.519Z,67.55
2022-09-09T10:18:43.236Z,69.29
2022-09-09T10:21:33.590Z,67.62
2022-09-09T10:24:06.650Z,64.88
2022-09-09T10:26:51.074Z,65.66
2022-09-09T10:29:48.787Z,65.30
2022-09-09T10:32:27.398Z,64.01
2022-09-09T10:34:58.701Z,64.49
2022-09-09T10:37:40.205Z,64.72
2022-09-09T10:40:22.405Z,62.92
2022-09-09T10:42:49.143Z,64.79
2022-09-09T10:45:27.576Z,65.84
2022-09-09T10:48:23.365Z,65.26
2022-09-09T10:51:20.762Z,65.94
2022-09-09T10:54:26.812Z,65.73
2022-09-09T10:56:59.720Z,67.26
2022-09-09T10:59:32.599Z,66.82
2022-09-09T11:02:33.472Z,68.37
2022-09-09T11:05:05.960Z,75.11
2022-09-09T11:07:41.671Z,78.72
2022-09-09T11:10:26.264Z,79.82
2022-09-09T11:12:57.227Z,81.21
2022-09-09T11:15:33.594Z,81.99
2022-09-09T11:18:04.218Z,80.19
2022-09-09T11:20:30.740Z,78.40
2022-09-09T11:23:04.036Z,80.33
2022-09-09T11:25:39.392Z,80.62
2022-09-09T11:28:12.469Z,80.33
2022-09-09T11:31:04.121Z,82.69
2022-09-09T11:33:50.115Z,78.17
2022-09-09T11:36:53.914Z,76.52
2022-09-09T11:39:32.168Z,75.02
2022-09-09T11:42:09.022Z,73.42
2022-09-09T11:44:35.558Z,75.48
2022-09-09T11:47:01.940Z,73.04
2022-09-09T11:49:43.921Z,73.33
2022-09-09T11:52:46.651Z,74.38
2022-09-09T11:55:31.635Z,73.55
2022-09-09T11:58:03.067Z,74.86
2022-09-09T12:00:42.505Z,75.15
2022-09-09T12:03:43.931Z,76.23
2022-09-09T12:06:20.882Z,76.10
2022-09-09T12:08:53.906Z,76.23
2022-09-09T12:11:28.461Z,75.38
2022-09-09T12:14:03.271Z,75.83
2022-09-09T12:16:35.241Z,72.51
2022-09-09T12:19:17.024Z,70.24
2022-09-09T12:21:53.208Z,70.25
2022-09-09T12:24:42.240Z,69.92
2022-09-09T12:27:25.534Z,67.05
2022-09-09T12:29:58.577Z,65.98
2022-09-09T12:32:26.915Z,64.51
2022-09-09T12:34:55.942Z,66.02
2022-09-09T12:38:02.344Z,67.64
2022-09-09T12:40:36.010Z,68.09
2022-09-09T12:43:17.315Z,68.58
2022-09-09T12:45:43.993Z,83.03
2022-09-09T12:48:12.989Z,94.54
2022-09-09T12:50:47.040Z,100.00
2022-09-09T12:53:27.295Z,100.00
2022-09-09T12:55:58.434Z,100.00
2022-09-09T12:58:26.027Z,97.38
2022-09-09T13:00:56.113Z,96.64
2022-09-09T13:03:22.897Z,88.83
2022-09-09T13:05:50.486Z,88.31
2022-09-09T13:08:21.427Z,89.12
2022-09-09T13:10:53.785Z,84.19
2022-09-09T13:13:28.013Z,83.75
2022-09-09T13:15:58.129Z,81.18
2022-09-09T13:18:36.523Z,80.30
2022-09-09T13:21:03.995Z,78.83
2022-09-09T13:23:33.316Z,81.01
2022-09-09T13:26:07.103Z,83.14
2022-09-09T13:28:34.632Z,79.74
2022-09-09T13:31:03.549Z,78.16
2022-09-09T13:33:39.758Z,79.11
2022-09-09T13:36:08.746Z,74.51
2022-09-09T13:38:56.677Z,73.92
2022-09-09T13:41:26.109Z,74.09
2022-09-09T13:43:53.918Z,73.10
2022-09-09T13:46:36.972Z,73.44
2022-09-09T13:49:15.151Z,72.80
2022-09-09T13:51:45.249Z,73.74
2022-09-09T13:54:13.103Z,73.92
2022-09-09T13:56:41.298Z,74.41
2022-09-09T13:59:12.757Z,74.39
2022-09-09T14:01:39.183Z,75.27
2022-09-09T14:04:09.550Z,75.35
2022-09-09T14:06:40.197Z,71.31
2022-09-09T14:09:08.066Z,73.34
2022-09-09T14:11:34.706Z,71.10
2022-09-09T14:14:01.877Z,69.02
2022-09-09T14:16:30.178Z,69.82
2022-09-09T14:19:00.047Z,68.73
2022-09-09T14:21:28.293Z,69.76
2022-09-09T14:23:54.921Z,72.69
2022-09-09T14:26:24.793Z,70.45
2022-09-09T14:28:55.364Z,72.70
2022-09-09T14:31:23.334Z,74.69
2022-09-09T14:33:49.683Z,74.09
2022-09-09T14:36:16.193Z,74.52
2022-09-09T14:38:43.216Z,76.07
2022-09-09T14:41:17.716Z,77.93
2022-09-09T14:43:45.120Z,85.21
2022-09-09T14:46:14.306Z,87.53
2022-09-09T14:48:41.775Z,91.91
2022-09-09T14:51:09.752Z,91.84
2022-09-09T14:53:36.847Z,95.53
2022-09-09T14:56:12.422Z,89.76
2022-09-09T14:58:41.645Z,87.81
2022-09-09T15:01:13.208Z,89.29
2022-09-09T15:03:41.039Z,88.24
2022-09-09T15:06:09.567Z,86.65
2022-09-09T15:08:42.528Z,87.62
2022-09-09T15:11:09.950Z,89.12
2022-09-09T15:13:38.265Z,87.35
2022-09-09T15:16:07.056Z,82.01
2022-09-09T15:18:34.111Z,82.46
2022-09-09T15:21:05.789Z,79.67
2022-09-09T15:23:33.485Z,82.30
2022-09-09T15:25:59.929Z,83.26
2022-09-09T15:28:26.560Z,83.08
2022-09-09T15:30:54.707Z,82.94
2022-09-09T15:33:22.995Z,83.96
2022-09-09T15:35:49.997Z,86.23
2022-09-09T15:38:17.593Z,88.11
2022-09-09T15:40:44.569Z,93.94
2022-09-09T15:43:11.623Z,100.00
2022-09-09T15:45:38.388Z,100.00
2022-09-09T15:48:05.704Z,100.00
2022-09-09T15:50:33.299Z,100.00
2022-09-09T15:53:00.386Z,100.00
2022-09-09T15:55:26.702Z,100.00
2022-09-09T15:57:55.934Z,100.00
2022-09-09T16:00:23.740Z,100.00
2022-09-09T16:02:50.183Z,100.00
2022-09-09T16:05:16.709Z,100.00
2022-09-09T16:07:43.458Z,100.00
2022-09-09T16:10:10.549Z,98.68
2022-09-09T16:12:37.251Z,98.09
2022-09-09T16:15:03.796Z,97.31
2022-09-09T16:17:30.329Z,98.79
2022-09-09T16:19:58.575Z,99.68
2022-09-09T16:22:25.467Z,100.00
2022-09-09T16:24:51.899Z,100.00
2022-09-09T16:27:18.575Z,100.00
2022-09-09T16:29:45.024Z,100.00
2022-09-09T16:32:12.025Z,100.00
2022-09-09T16:34:38.353Z,100.00
2022-09-09T16:37:04.740Z,100.00
2022-09-09T16:39:31.293Z,100.00
2022-09-09T16:41:58.046Z,100.00
2022-09-09T16:44:24.410Z,100.00
2022-09-09T16:46:56.899Z,100.00
2022-09-09T16:49:26.251Z,100.00
2022-09-09T16:51:55.432Z,100.00
2022-09-09T16:54:22.953Z,100.00
2022-09-09T16:56:49.606Z,100.00
2022-09-09T16:59:18.846Z,100.00
2022-09-09T17:01:47.018Z,100.00
2022-09-09T17:04:21.735Z,100.00
2022-09-09T17:06:50.364Z,100.00
2022-09-09T17:09:17.371Z,100.00
2022-09-09T17:11:44.065Z,100.00
2022-09-09T17:14:15.300Z,100.00
2022-09-09T17:16:42.125Z,100.00
2022-09-09T17:19:09.985Z,100.00
2022-09-09T17:21:42.760Z,100.00
2022-09-09T17:24:22.027Z,100.00
2022-09-09T17:26:48.346Z,100.00
2022-09-09T17:29:14.711Z,100.00
2022-09-09T17:31:42.176Z,100.00
2022-09-09T17:34:09.929Z,100.00
2022-09-09T17:36:37.505Z,100.00
2022-09-09T17:39:05.341Z,100.00
2022-09-09T17:41:34.725Z,100.00
2022-09-09T17:44:01.614Z,100.00
2022-09-09T17:46:30.595Z,100.00
2022-09-09T17:48:59.318Z,100.00
2022-09-09T17:51:33.736Z,100.00
2022-09-09T17:54:03.390Z,100.00
2022-09-09T17:56:32.219Z,100.00
2022-09-09T17:59:00.281Z,100.00
2022-09-09T18:01:29.834Z,100.00
2022-09-09T18:03:57.629Z,100.00
2022-09-09T18:06:29.346Z,100.00
2022-09-09T18:09:02.285Z,100.00
2022-09-09T18:11:31.920Z,100.00
2022-09-09T18:14:00.822Z,100.00
2022-09-09T18:16:30.498Z,100.00
2022-09-09T18:19:00.814Z,100.00
2022-09-09T18:21:27.601Z,100.00
2022-09-09T18:23:54.134Z,100.00
2022-09-09T18:26:26.203Z,100.00
2022-09-09T18:28:54.926Z,100.00
2022-09-09T18:31:24.147Z,100.00
2022-09-09T18:33:51.641Z,100.00
2022-09-09T18:36:21.094Z,100.00
2022-09-09T18:38:48.188Z,100.00
2022-09-09T18:41:17.585Z,100.00
2022-09-09T18:43:44.872Z,100.00
2022-09-09T18:46:12.493Z,100.00
2022-09-09T18:48:39.674Z,100.00
2022-09-09T18:51:08.801Z,100.00
2022-09-09T18:53:36.895Z,100.00
2022-09-09T18:56:06.249Z,100.00
2022-09-09T18:58:33.460Z,100.00
2022-09-09T19:01:01.249Z,100.00
2022-09-09T19:03:29.381Z,100.00
2022-09-09T19:06:03.463Z,100.00
2022-09-09T19:08:30.352Z,100.00
2022-09-09T19:11:02.481Z,100.00
2022-09-09T19:13:29.272Z,100.00
2022-09-09T19:15:55.779Z,100.00
2022-09-09T19:18:22.205Z,100.00
2022-09-09T19:20:48.553Z,100.00
2022-09-09T19:23:14.949Z,100.00
2022-09-09T19:25:41.323Z,100.00
2022-09-09T19:28:07.844Z,100.00
2022-09-09T19:30:35.945Z,100.00
2022-09-09T19:33:02.414Z,100.00
2022-09-09T19:35:28.828Z,100.00
2022-09-09T19:37:55.231Z,100.00
2022-09-09T19:40:22.941Z,100.00
2022-09-09T19:42:49.679Z,100.00
2022-09-09T19:45:16.017Z,100.00
2022-09-09T19:47:43.869Z,100.00
2022-09-09T19:50:10.281Z,100.00
2022-09-09T19:52:37.151Z,100.00
2022-09-09T19:55:03.709Z,100.00
2022-09-09T19:57:30.786Z,100.00
2022-09-09T19:59:57.398Z,100.00
2022-09-09T20:02:24.917Z,100.00
2022-09-09T20:04:51.760Z,100.00
2022-09-09T20:07:19.090Z,100.00
2022-09-09T20:09:45.536Z,100.00
2022-09-09T20:12:12.466Z,100.00
2022-09-09T20:14:40.050Z,100.00
2022-09-09T20:17:06.978Z,100.00
2022-09-09T20:19:33.387Z,100.00
2022-09-09T20:21:59.761Z,100.00
2022-09-09T20:24:26.110Z,100.00
2022-09-09T20:26:52.586Z,100.00
2022-09-09T20:29:20.154Z,100.00
2022-09-09T20:31:47.620Z,100.00
2022-09-09T20:34:16.708Z,100.00
2022-09-09T20:36:43.429Z,100.00
2022-09-09T20:39:18.084Z,100.00
2022-09-09T20:41:45.976Z,100.00
2022-09-09T20:44:18.311Z,100.00
2022-09-09T20:46:50.223Z,100.00
2022-09-09T20:49:18.867Z,100.00
2022-09-09T20:51:46.867Z,100.00
2022-09-09T20:54:24.077Z,100.00
2022-09-09T20:56:52.265Z,100.00
2022-09-09T20:59:24.011Z,100.00
2022-09-09T21:01:51.029Z,100.00
2022-09-09T21:04:19.652Z,100.00
2022-09-09T21:06:47.146Z,100.00
2022-09-09T21:09:14.116Z,100.00
2022-09-09T21:11:40.762Z,100.00
2022-09-09T21:14:07.265Z,100.00
2022-09-09T21:16:33.849Z,100.00
2022-09-09T21:19:00.246Z,100.00
2022-09-09T21:21:27.028Z,100.00
2022-09-09T21:23:56.086Z,100.00
2022-09-09T21:26:23.277Z,100.00
2022-09-09T21:28:49.794Z,100.00
2022-09-09T21:31:18.606Z,100.00
2022-09-09T21:33:46.164Z,100.00
2022-09-09T21:36:14.385Z,100.00
2022-09-09T21:38:41.787Z,100.00
2022-09-09T21:41:13.001Z,100.00
2022-09-09T21:43:41.840Z,100.00
2022-09-09T21:46:16.829Z,100.00
2022-09-09T21:48:44.104Z,100.00
2022-09-09T21:51:16.199Z,100.00
2022-09-09T21:53:43.549Z,100.00
2022-09-09T21:56:13.070Z,100.00
2022-09-09T21:58:41.041Z,100.00
2022-09-09T22:01:14.559Z,100.00
2022-09-09T22:03:42.594Z,100.00
2022-09-09T22:06:11.405Z,100.00
2022-09-09T22:08:38.096Z,100.00
2022-09-09T22:11:13.897Z,100.00
2022-09-09T22:13:42.233Z,100.00
2022-09-09T22:16:12.111Z,100.00
2022-09-09T22:18:38.591Z,100.00
2022-09-09T22:21:16.662Z,100.00
2022-09-09T22:23:43.199Z,100.00
2022-09-09T22:26:10.284Z,100.00
2022-09-09T22:28:38.417Z,100.00
2022-09-09T22:31:05.896Z,100.00
2022-09-09T22:33:32.419Z,100.00
2022-09-09T22:35:59.297Z,100.00
2022-09-09T22:38:26.899Z,100.00
2022-09-09T22:40:53.429Z,100.00
2022-09-09T22:43:22.121Z,100.00
2022-09-09T22:45:48.874Z,100.00
2022-09-09T22:48:15.933Z,100.00
2022-09-09T22:50:42.792Z,100.00
2022-09-09T22:53:13.477Z,100.00
2022-09-09T22:55:40.561Z,100.00
2022-09-09T22:58:07.128Z,100.00
2022-09-09T23:00:33.539Z,100.00
2022-09-09T23:02:59.941Z,100.00
2022-09-09T23:05:27.490Z,100.00
2022-09-09T23:07:57.496Z,100.00
2022-09-09T23:10:24.242Z,100.00
2022-09-09T23:12:50.631Z,100.00
2022-09-09T23:15:17.310Z,100.00
2022-09-09T23:17:43.635Z,100.00
2022-09-09T23:20:10.570Z,100.00
2022-09-09T23:22:39.051Z,100.00
2022-09-09T23:25:06.032Z,100.00
2022-09-09T23:27:32.838Z,100.00
2022-09-09T23:29:59.255Z,100.00
2022-09-09T23:32:26.336Z,100.00
2022-09-09T23:34:52.666Z,100.00
2022-09-09T23:37:19.053Z,100.00
2022-09-09T23:39:45.514Z,100.00
2022-09-09T23:42:12.161Z,100.00
2022-09-09T23:44:39.417Z,100.00
2022-09-09T23:47:07.092Z,100.00
2022-09-09T23:49:34.382Z,100.00
2022-09-09T23:52:04.195Z,100.00
2022-09-09T23:54:31.452Z,100.00
2022-09-09T23:56:57.862Z,100.00
2022-09-09T23:59:24.379Z,100.00
